Time;durP1;ratioP1;P1;durP2;ratioP2;P2;SDS_P1;SDS_P2;PMS_P1;PMS_P2;Temp;Humidity;BMP_temperature;BMP_pressure;BME280_temperature;BME280_humidity;BME280_pressure;Samples;Min_cycle;Max_cycle;Signal;HPM_P1;HPM_P2
2023/12/21 00:02:07;;;;;;;4.53;2.90;;;5.70;99.90;;;;;;5003346;28;20022;-68
2023/12/21 00:04:33;;;;;;;6.88;2.92;;;5.60;99.90;;;;;;5000337;28;20041;-68
2023/12/21 00:07:00;;;;;;;5.93;2.80;;;5.60;99.90;;;;;;4998301;28;20034;-68
2023/12/21 00:09:26;;;;;;;5.68;2.85;;;5.60;99.90;;;;;;5007899;28;20108;-68
2023/12/21 00:11:52;;;;;;;5.90;3.50;;;5.60;99.90;;;;;;5007943;28;20034;-68
2023/12/21 00:14:17;;;;;;;6.20;3.30;;;5.70;99.90;;;;;;5007747;28;20030;-68
2023/12/21 00:16:43;;;;;;;13.80;3.97;;;5.80;99.90;;;;;;5003615;28;20049;-68
2023/12/21 00:19:09;;;;;;;5.75;2.95;;;5.80;99.90;;;;;;5006216;28;20042;-68
2023/12/21 00:21:35;;;;;;;7.45;2.90;;;5.80;99.90;;;;;;5003551;28;20062;-68
2023/12/21 00:24:01;;;;;;;6.65;4.15;;;5.80;99.90;;;;;;5003824;28;20088;-68
2023/12/21 00:26:26;;;;;;;6.65;2.97;;;5.80;99.90;;;;;;5007697;28;20593;-68
2023/12/21 00:28:52;;;;;;;4.70;3.00;;;5.90;99.90;;;;;;5007387;28;20108;-68
2023/12/21 00:31:18;;;;;;;5.82;2.55;;;6.00;99.90;;;;;;5007178;28;20062;-68
2023/12/21 00:33:44;;;;;;;3.85;2.30;;;6.00;99.90;;;;;;5004874;28;20037;-68
2023/12/21 00:36:16;;;;;;;4.57;2.28;;;6.10;99.90;;;;;;5006149;28;20034;-68
2023/12/21 00:38:41;;;;;;;5.18;2.38;;;6.10;99.90;;;;;;5005253;28;20450;-68
2023/12/21 00:41:07;;;;;;;3.70;1.73;;;6.20;99.90;;;;;;5004375;28;20034;-68
2023/12/21 00:43:33;;;;;;;3.20;1.70;;;6.30;99.90;;;;;;5007409;28;20401;-68
2023/12/21 00:45:59;;;;;;;4.40;1.95;;;6.30;99.90;;;;;;5007352;28;20065;-68
2023/12/21 00:48:25;;;;;;;2.03;1.77;;;6.30;99.90;;;;;;5007084;28;20034;-68
2023/12/21 00:50:51;;;;;;;3.13;2.00;;;6.40;99.90;;;;;;5004771;28;20506;-68
2023/12/21 00:53:19;;;;;;;3.33;1.83;;;6.50;99.90;;;;;;5007261;28;20034;-68
2023/12/21 00:55:45;;;;;;;2.67;1.85;;;6.60;99.90;;;;;;5007107;28;20041;-68
2023/12/21 00:58:11;;;;;;;9.43;2.00;;;6.60;99.90;;;;;;5003668;28;20104;-68
2023/12/21 01:00:37;;;;;;;4.88;1.88;;;6.50;99.90;;;;;;5006873;28;20488;-68
2023/12/21 01:03:03;;;;;;;4.90;1.77;;;6.60;99.90;;;;;;5003935;28;20038;-68
2023/12/21 01:05:29;;;;;;;2.67;1.73;;;6.70;99.90;;;;;;5003012;28;20052;-68
2023/12/21 01:07:54;;;;;;;9.15;1.85;;;6.70;99.90;;;;;;5006992;28;20038;-68
2023/12/21 01:10:20;;;;;;;4.32;1.73;;;6.60;99.90;;;;;;5003939;28;20026;-68
2023/12/21 01:12:46;;;;;;;2.17;1.60;;;6.60;99.90;;;;;;5006528;28;20840;-68
2023/12/21 01:15:12;;;;;;;2.42;1.55;;;6.60;99.90;;;;;;5006581;28;20025;-69
2023/12/21 01:17:38;;;;;;;3.38;1.48;;;6.70;99.90;;;;;;5006555;28;20072;-68
2023/12/21 01:20:04;;;;;;;2.97;1.35;;;6.70;99.90;;;;;;5004572;28;20145;-68
2023/12/21 01:22:30;;;;;;;1.58;1.42;;;6.70;99.90;;;;;;5003836;28;20037;-68
2023/12/21 01:24:57;;;;;;;2.17;1.50;;;6.70;99.90;;;;;;5006012;28;20034;-68
2023/12/21 01:27:23;;;;;;;2.88;1.17;;;6.70;99.90;;;;;;5004828;28;20044;-68
2023/12/21 01:29:48;;;;;;;2.95;1.65;;;6.80;99.90;;;;;;5006579;28;20038;-68
2023/12/21 01:32:14;;;;;;;2.03;1.27;;;7.00;99.90;;;;;;5005255;28;20486;-68
2023/12/21 01:34:40;;;;;;;2.47;1.35;;;6.90;99.90;;;;;;5004764;28;20040;-68
2023/12/21 01:37:06;;;;;;;1.42;0.98;;;6.90;99.90;;;;;;5003237;28;20033;-68
2023/12/21 01:39:31;;;;;;;1.33;1.20;;;6.90;99.90;;;;;;5006645;28;20030;-68
2023/12/21 01:41:57;;;;;;;3.88;0.82;;;6.90;99.90;;;;;;5006002;28;20073;-68
2023/12/21 01:44:23;;;;;;;2.70;1.13;;;7.00;99.90;;;;;;5006491;28;20038;-68
2023/12/21 01:46:49;;;;;;;2.13;1.30;;;7.00;99.90;;;;;;5003966;28;20495;-68
2023/12/21 01:49:15;;;;;;;1.08;0.98;;;7.20;99.90;;;;;;5005043;28;20034;-68
2023/12/21 01:51:42;;;;;;;3.33;2.42;;;7.10;99.90;;;;;;5002124;28;20040;-68
2023/12/21 01:54:08;;;;;;;1.63;1.00;;;7.20;99.90;;;;;;5004227;28;20029;-68
2023/12/21 01:56:34;;;;;;;1.23;0.90;;;7.30;99.90;;;;;;5003677;28;20037;-68
2023/12/21 01:59:00;;;;;;;1.40;0.82;;;7.30;99.90;;;;;;4997845;28;20037;-68
2023/12/21 02:01:26;;;;;;;1.65;0.98;;;7.20;99.90;;;;;;4997042;28;20512;-68
2023/12/21 02:03:54;;;;;;;2.55;1.27;;;7.10;99.90;;;;;;5003542;28;20045;-68
2023/12/21 02:06:20;;;;;;;2.42;1.00;;;7.10;99.90;;;;;;5002724;28;20030;-68
2023/12/21 02:08:46;;;;;;;1.50;1.05;;;7.10;99.90;;;;;;5004126;28;20046;-68
2023/12/21 02:11:12;;;;;;;1.52;1.00;;;7.10;99.90;;;;;;5001867;28;20108;-68
2023/12/21 02:13:37;;;;;;;1.35;0.90;;;7.10;99.90;;;;;;5005904;28;20061;-68
2023/12/21 02:16:19;;;;;;;1.02;0.80;;;7.20;99.90;;;;;;5002532;28;20124;-68
2023/12/21 02:18:45;;;;;;;0.85;0.73;;;7.20;99.90;;;;;;5000275;28;20120;-68
2023/12/21 02:21:12;;;;;;;1.65;0.95;;;7.30;99.90;;;;;;5002984;28;20049;-68
2023/12/21 02:23:40;;;;;;;0.95;0.82;;;7.40;99.90;;;;;;5005666;28;20030;-68
2023/12/21 02:26:06;;;;;;;0.95;0.90;;;7.30;99.90;;;;;;5005493;28;20502;-66
2023/12/21 02:28:32;;;;;;;0.82;0.73;;;7.20;99.90;;;;;;5005468;28;20045;-68
2023/12/21 02:30:57;;;;;;;2.78;0.80;;;7.20;99.90;;;;;;5005026;28;20030;-68
2023/12/21 02:33:23;;;;;;;0.73;0.73;;;7.20;99.90;;;;;;5005491;28;20026;-68
2023/12/21 02:35:49;;;;;;;2.25;0.63;;;7.20;99.90;;;;;;5002391;28;20034;-68
2023/12/21 02:38:14;;;;;;;0.65;0.65;;;7.50;99.90;;;;;;5004801;28;20610;-68
2023/12/21 02:40:40;;;;;;;0.70;0.57;;;7.50;99.90;;;;;;5000818;28;20033;-68
2023/12/21 02:43:06;;;;;;;2.47;0.60;;;7.60;99.90;;;;;;5003348;28;20163;-68
2023/12/21 02:45:32;;;;;;;0.80;0.60;;;7.60;99.90;;;;;;5004422;28;20072;-68
2023/12/21 02:47:58;;;;;;;1.20;1.10;;;7.70;99.90;;;;;;5005295;28;20074;-68
2023/12/21 02:50:23;;;;;;;0.93;0.60;;;7.70;99.90;;;;;;4997945;28;20123;-68
2023/12/21 02:52:49;;;;;;;1.38;0.80;;;7.80;99.90;;;;;;5002274;28;20069;-68
2023/12/21 02:55:15;;;;;;;0.50;0.50;;;7.80;99.90;;;;;;5001202;28;20066;-68
2023/12/21 02:57:40;;;;;;;0.80;0.80;;;7.80;99.90;;;;;;5004134;28;20442;-68
2023/12/21 03:00:07;;;;;;;1.27;0.90;;;7.80;99.90;;;;;;5002108;28;20149;-68
2023/12/21 03:02:33;;;;;;;0.70;0.70;;;7.70;99.90;;;;;;5002338;28;20505;-68
2023/12/21 03:04:59;;;;;;;1.48;0.80;;;7.80;99.90;;;;;;5001533;28;20039;-68
2023/12/21 03:07:25;;;;;;;1.05;0.80;;;7.80;99.90;;;;;;5004099;28;20038;-68
2023/12/21 03:09:50;;;;;;;0.77;0.77;;;7.90;99.90;;;;;;5004576;28;20045;-68
2023/12/21 03:12:16;;;;;;;1.35;1.10;;;7.90;99.90;;;;;;5004866;28;20034;-68
2023/12/21 03:14:42;;;;;;;1.17;0.90;;;7.90;99.90;;;;;;5001566;28;20117;-69
2023/12/21 03:17:08;;;;;;;1.10;0.80;;;8.00;99.90;;;;;;5003574;28;20080;-69
2023/12/21 03:19:34;;;;;;;1.20;1.00;;;8.10;99.90;;;;;;5004898;28;20045;-69
2023/12/21 03:21:59;;;;;;;1.13;1.02;;;8.00;99.90;;;;;;5004843;28;20030;-68
2023/12/21 03:24:25;;;;;;;1.63;1.17;;;8.00;99.90;;;;;;5009065;28;20533;-68
2023/12/21 03:26:51;;;;;;;1.50;1.27;;;8.00;99.90;;;;;;5004307;28;20367;-69
2023/12/21 03:29:17;;;;;;;2.42;1.20;;;8.10;99.90;;;;;;5008192;28;20504;-69
2023/12/21 03:31:42;;;;;;;1.55;1.10;;;8.10;99.90;;;;;;5008574;28;20041;-68
2023/12/21 03:34:08;;;;;;;1.83;1.05;;;8.10;99.90;;;;;;5008706;28;20040;-68
2023/12/21 03:36:34;;;;;;;1.20;1.10;;;8.20;99.90;;;;;;5008564;28;20030;-69
2023/12/21 03:39:00;;;;;;;1.42;1.10;;;8.20;99.90;;;;;;5007119;28;20185;-68
2023/12/21 03:41:25;;;;;;;1.25;1.15;;;8.20;99.90;;;;;;5006845;28;20128;-68
2023/12/21 03:43:51;;;;;;;2.13;1.30;;;8.30;99.90;;;;;;5005322;28;20080;-68
2023/12/21 03:46:17;;;;;;;3.53;1.30;;;8.30;99.90;;;;;;5007759;28;20037;-68
2023/12/21 03:48:43;;;;;;;3.28;1.20;;;8.30;99.90;;;;;;5008345;28;20112;-68
2023/12/21 03:51:08;;;;;;;2.25;1.20;;;8.30;99.90;;;;;;5003850;28;20752;-68
2023/12/21 03:53:34;;;;;;;1.73;1.23;;;8.40;99.90;;;;;;5008199;28;20029;-68
2023/12/21 03:56:00;;;;;;;1.35;1.00;;;8.50;99.90;;;;;;5004923;28;20033;-68
2023/12/21 03:58:26;;;;;;;1.13;1.02;;;8.60;99.90;;;;;;5006523;28;20042;-68
2023/12/21 04:00:52;;;;;;;1.02;0.95;;;8.60;99.90;;;;;;5005878;28;20046;-68
2023/12/21 04:03:17;;;;;;;1.10;1.00;;;8.60;99.90;;;;;;5003855;28;20091;-68
2023/12/21 04:05:43;;;;;;;1.05;0.90;;;8.60;99.90;;;;;;5004999;28;20061;-68
2023/12/21 04:08:09;;;;;;;2.30;1.02;;;8.50;99.90;;;;;;5004453;28;20117;-68
2023/12/21 04:10:35;;;;;;;1.10;1.00;;;8.40;99.90;;;;;;5006100;28;20040;-68
2023/12/21 04:13:01;;;;;;;0.85;0.82;;;8.40;99.90;;;;;;4998030;28;20044;-68
2023/12/21 04:15:27;;;;;;;1.08;1.00;;;8.50;99.90;;;;;;4996766;28;20042;-69
2023/12/21 04:17:52;;;;;;;1.17;1.00;;;8.70;99.90;;;;;;5003232;28;20781;-68
2023/12/21 04:20:19;;;;;;;1.00;0.90;;;8.80;99.90;;;;;;5004305;28;20108;-68
2023/12/21 04:22:45;;;;;;;5.07;1.05;;;8.90;99.90;;;;;;5007658;28;20030;-68
2023/12/21 04:25:11;;;;;;;0.93;0.85;;;8.90;99.90;;;;;;5006578;28;20030;-68
2023/12/21 04:27:36;;;;;;;1.50;0.90;;;8.90;99.90;;;;;;5006090;28;20076;-68
2023/12/21 04:30:03;;;;;;;1.20;1.10;;;9.00;99.90;;;;;;5003486;28;20411;-68
2023/12/21 04:32:29;;;;;;;0.60;0.60;;;9.00;99.90;;;;;;5007040;28;20033;-68
2023/12/21 04:34:54;;;;;;;1.27;0.90;;;9.10;99.90;;;;;;5002708;28;20037;-68
2023/12/21 04:37:20;;;;;;;0.77;0.75;;;9.20;99.90;;;;;;5005025;28;20101;-68
2023/12/21 04:39:47;;;;;;;0.95;0.70;;;9.20;99.90;;;;;;5007303;28;20079;-68
2023/12/21 04:42:13;;;;;;;0.50;0.50;;;9.20;99.90;;;;;;5003958;28;20838;-68
2023/12/21 04:44:39;;;;;;;1.25;0.93;;;9.30;99.90;;;;;;5004418;28;20128;-68
2023/12/21 04:47:08;;;;;;;0.65;0.60;;;9.40;99.90;;;;;;5007409;28;20030;-68
2023/12/21 04:49:34;;;;;;;0.60;0.60;;;9.40;99.90;;;;;;5007235;28;20077;-68
2023/12/21 04:52:00;;;;;;;1.00;0.45;;;9.50;99.90;;;;;;5006321;28;20038;-68
2023/12/21 04:54:26;;;;;;;0.60;0.60;;;9.50;99.90;;;;;;5006950;28;20461;-68
2023/12/21 04:56:51;;;;;;;0.50;0.50;;;9.40;99.90;;;;;;5001704;28;20030;-68
2023/12/21 04:59:17;;;;;;;0.50;0.50;;;9.50;99.90;;;;;;5003510;28;20045;-68
2023/12/21 05:01:49;;;;;;;0.50;0.50;;;9.50;99.90;;;;;;5003843;28;20034;-68
2023/12/21 05:04:14;;;;;;;0.40;0.40;;;9.50;99.90;;;;;;5007294;28;20065;-68
2023/12/21 05:06:40;;;;;;;0.50;0.50;;;9.60;99.90;;;;;;5006250;28;20072;-68
2023/12/21 05:09:06;;;;;;;0.38;0.38;;;9.60;99.90;;;;;;5003925;28;20465;-68
2023/12/21 05:11:32;;;;;;;0.52;0.52;;;9.60;99.90;;;;;;5002695;28;20030;-68
2023/12/21 05:13:58;;;;;;;0.30;0.30;;;9.60;99.90;;;;;;5005196;28;20501;-68
2023/12/21 05:16:23;;;;;;;1.67;0.73;;;9.60;99.90;;;;;;5006422;28;20079;-68
2023/12/21 05:18:50;;;;;;;2.90;0.30;;;9.50;99.90;;;;;;5005478;28;20536;-68
2023/12/21 05:21:16;;;;;;;0.30;0.30;;;9.50;99.90;;;;;;5006501;28;20042;-68
2023/12/21 05:23:41;;;;;;;1.08;0.50;;;9.50;99.90;;;;;;5006408;28;20036;-68
2023/12/21 05:26:15;;;;;;;0.60;0.50;;;9.50;99.90;;;;;;5006511;28;20040;-68
2023/12/21 05:28:42;;;;;;;0.82;0.47;;;9.60;99.90;;;;;;5006542;28;20041;-68
2023/12/21 05:31:11;;;;;;;0.47;0.47;;;9.70;99.90;;;;;;5005640;28;20037;-68
2023/12/21 05:33:38;;;;;;;0.65;0.38;;;9.60;99.90;;;;;;4996211;28;20030;-68
2023/12/21 05:36:04;;;;;;;0.50;0.50;;;9.60;99.90;;;;;;5002218;28;20738;-68
2023/12/21 05:38:30;;;;;;;0.45;0.45;;;9.40;99.90;;;;;;5005975;28;20033;-68
2023/12/21 05:40:56;;;;;;;0.30;0.30;;;9.30;99.90;;;;;;5004697;28;20486;-68
2023/12/21 05:43:22;;;;;;;0.85;0.30;;;9.40;99.90;;;;;;5003262;28;20096;-68
2023/12/21 05:45:48;;;;;;;1.38;0.60;;;9.30;99.90;;;;;;5003301;28;20048;-68
2023/12/21 05:48:14;;;;;;;0.95;0.40;;;9.20;99.90;;;;;;5004842;28;20046;-68
2023/12/21 05:50:39;;;;;;;0.55;0.50;;;9.20;99.90;;;;;;5001248;28;20030;-68
2023/12/21 05:53:06;;;;;;;0.60;0.57;;;9.20;99.90;;;;;;5003581;28;20026;-68
2023/12/21 05:55:33;;;;;;;0.50;0.47;;;9.30;99.90;;;;;;5005301;28;20059;-68
2023/12/21 05:57:58;;;;;;;0.32;0.32;;;9.30;99.90;;;;;;5002298;28;20394;-68
2023/12/21 06:00:24;;;;;;;2.08;0.50;;;9.30;99.90;;;;;;4998439;28;20029;-68
2023/12/21 06:02:50;;;;;;;0.30;0.30;;;9.10;99.90;;;;;;5004112;28;20029;-68
2023/12/21 06:05:17;;;;;;;0.52;0.50;;;9.00;99.90;;;;;;5005320;28;20132;-68
2023/12/21 06:07:42;;;;;;;0.40;0.40;;;9.00;99.90;;;;;;5002251;28;20069;-68
2023/12/21 06:10:08;;;;;;;0.50;0.50;;;9.10;99.90;;;;;;5005730;28;20120;-68
2023/12/21 06:12:34;;;;;;;0.50;0.50;;;9.00;99.90;;;;;;5001355;28;20088;-68
2023/12/21 06:15:00;;;;;;;0.68;0.50;;;9.00;99.90;;;;;;5006092;28;20033;-68
2023/12/21 06:17:26;;;;;;;0.60;0.60;;;9.10;99.90;;;;;;5005864;28;20060;-68
2023/12/21 06:19:52;;;;;;;1.30;0.63;;;8.90;99.90;;;;;;5003669;28;20511;-68
2023/12/21 06:22:18;;;;;;;0.88;0.70;;;9.00;99.90;;;;;;5000043;28;20058;-68
2023/12/21 06:24:44;;;;;;;0.65;0.65;;;9.00;99.90;;;;;;5002371;28;20034;-68
2023/12/21 06:27:09;;;;;;;3.47;1.10;;;9.10;99.90;;;;;;5005628;28;20053;-68
2023/12/21 06:29:35;;;;;;;0.52;0.52;;;9.00;99.90;;;;;;5005405;28;20225;-68
2023/12/21 06:32:02;;;;;;;0.85;0.85;;;9.00;99.90;;;;;;5005566;28;20034;-68
2023/12/21 06:34:28;;;;;;;0.60;0.50;;;9.00;99.90;;;;;;4988960;28;20554;-67
2023/12/21 06:36:53;;;;;;;2.33;0.98;;;8.80;99.90;;;;;;5008773;28;20124;-68
2023/12/21 06:39:19;;;;;;;1.20;0.85;;;8.50;99.90;;;;;;5001317;28;20108;-68
2023/12/21 06:41:46;;;;;;;1.10;0.80;;;8.40;99.90;;;;;;5003465;28;20557;-68
2023/12/21 06:44:11;;;;;;;2.28;1.27;;;8.40;99.90;;;;;;5003400;28;20221;-68
2023/12/21 06:46:37;;;;;;;1.08;0.80;;;8.30;99.90;;;;;;5002056;28;20516;-68
2023/12/21 06:49:03;;;;;;;2.40;0.85;;;8.20;99.90;;;;;;5002676;28;20376;-68
2023/12/21 06:51:29;;;;;;;0.80;0.47;;;8.30;99.90;;;;;;5004893;28;20045;-68
2023/12/21 06:53:54;;;;;;;1.42;0.90;;;8.10;99.90;;;;;;5004550;28;20026;-68
2023/12/21 06:56:20;;;;;;;0.57;0.57;;;8.10;99.90;;;;;;5008878;28;20030;-69
2023/12/21 06:58:46;;;;;;;0.40;0.40;;;8.10;99.90;;;;;;5008075;28;20034;-69
2023/12/21 07:01:12;;;;;;;0.45;0.40;;;8.10;99.90;;;;;;5008161;28;20038;-69
2023/12/21 07:03:38;;;;;;;5.10;0.75;;;8.10;99.90;;;;;;5007560;28;20037;-69
2023/12/21 07:06:04;;;;;;;0.20;0.20;;;8.00;99.90;;;;;;5005765;28;20084;-69
2023/12/21 07:08:29;;;;;;;1.75;0.50;;;8.00;99.90;;;;;;5007623;28;20128;-69
2023/12/21 07:10:55;;;;;;;0.30;0.10;;;8.10;99.90;;;;;;5002983;28;20033;-68
2023/12/21 07:13:21;;;;;;;0.40;0.15;;;8.10;99.90;;;;;;5006005;28;20088;-69
2023/12/21 07:15:47;;;;;;;0.10;0.10;;;8.20;99.90;;;;;;5005392;28;20823;-68
2023/12/21 07:18:12;;;;;;;1.63;0.30;;;8.10;99.90;;;;;;5007496;28;20034;-69
2023/12/21 07:20:38;;;;;;;1.55;1.00;;;8.00;99.90;;;;;;5007222;28;20045;-69
2023/12/21 07:23:04;;;;;;;1.13;0.95;;;8.00;99.90;;;;;;5006315;28;20448;-69
2023/12/21 07:25:30;;;;;;;0.40;0.40;;;8.10;99.90;;;;;;5004424;28;20335;-69
2023/12/21 07:27:56;;;;;;;0.40;0.40;;;8.00;99.90;;;;;;5007844;28;20084;-68
2023/12/21 07:30:21;;;;;;;0.50;0.50;;;7.90;99.90;;;;;;5002881;28;20132;-67
2023/12/21 07:32:47;;;;;;;0.98;0.70;;;7.90;99.90;;;;;;5007185;28;20037;-65
2023/12/21 07:35:13;;;;;;;1.30;1.20;;;7.90;99.90;;;;;;5007550;28;20034;-69
2023/12/21 07:37:39;;;;;;;0.38;0.38;;;7.90;99.90;;;;;;5008331;28;20498;-69
2023/12/21 07:40:05;;;;;;;0.90;0.85;;;7.90;99.90;;;;;;5007787;28;20036;-69
2023/12/21 07:42:31;;;;;;;0.65;0.50;;;7.90;99.90;;;;;;5007051;28;20502;-69
2023/12/21 07:44:57;;;;;;;0.65;0.65;;;7.90;99.90;;;;;;5006237;28;20037;-69
2023/12/21 07:47:22;;;;;;;2.33;1.80;;;7.90;99.90;;;;;;5008342;28;20605;-69
2023/12/21 07:49:48;;;;;;;1.10;1.00;;;7.90;99.90;;;;;;5006833;28;20740;-66
2023/12/21 07:52:14;;;;;;;1.08;0.90;;;8.00;99.90;;;;;;5007487;28;20034;-67
2023/12/21 07:54:40;;;;;;;1.63;0.77;;;8.00;99.90;;;;;;5006877;28;20037;-68
2023/12/21 07:57:06;;;;;;;1.40;0.70;;;7.90;99.90;;;;;;5007836;28;20077;-68
2023/12/21 07:59:31;;;;;;;0.85;0.63;;;7.80;99.90;;;;;;5008724;28;20054;-68
2023/12/21 08:01:57;;;;;;;0.80;0.80;;;7.90;99.90;;;;;;5007760;28;20088;-68
2023/12/21 08:04:23;;;;;;;0.90;0.88;;;7.90;99.90;;;;;;5006994;28;20765;-68
2023/12/21 08:06:48;;;;;;;0.55;0.52;;;7.90;99.90;;;;;;5008033;28;20533;-68
2023/12/21 08:09:15;;;;;;;1.25;0.88;;;7.90;99.90;;;;;;5007887;28;20037;-67
2023/12/21 08:11:41;;;;;;;1.10;0.90;;;8.00;99.90;;;;;;5007367;28;20100;-68
2023/12/21 08:14:07;;;;;;;0.68;0.60;;;8.00;99.90;;;;;;5008157;28;20042;-69
2023/12/21 08:16:32;;;;;;;2.10;1.02;;;8.00;99.90;;;;;;5005670;28;20033;-68
2023/12/21 08:18:58;;;;;;;0.70;0.60;;;8.00;99.90;;;;;;5003961;28;20037;-68
2023/12/21 08:21:24;;;;;;;5.20;0.93;;;8.00;99.90;;;;;;5007553;28;20029;-68
2023/12/21 08:23:50;;;;;;;1.73;1.00;;;7.90;99.90;;;;;;5007945;28;20080;-68
2023/12/21 08:26:16;;;;;;;0.68;0.40;;;8.00;99.90;;;;;;5007108;28;20091;-65
2023/12/21 08:28:42;;;;;;;1.10;0.60;;;8.00;99.90;;;;;;5007912;28;20029;-67
2023/12/21 08:31:08;;;;;;;0.30;0.30;;;8.00;99.90;;;;;;5007138;28;20434;-67
2023/12/21 08:33:35;;;;;;;1.30;0.40;;;8.00;99.90;;;;;;5007123;28;20038;-68
2023/12/21 08:36:02;;;;;;;0.65;0.65;;;8.00;99.90;;;;;;5007318;28;20030;-68
2023/12/21 08:38:28;;;;;;;0.85;0.60;;;8.00;99.90;;;;;;5007859;28;20113;-68
2023/12/21 08:40:54;;;;;;;1.48;0.70;;;8.00;99.90;;;;;;5007118;28;20112;-67
2023/12/21 08:43:19;;;;;;;1.42;0.85;;;8.00;99.90;;;;;;5007378;28;20514;-68
2023/12/21 08:45:45;;;;;;;0.63;0.30;;;8.10;99.90;;;;;;5007179;28;20034;-68
2023/12/21 08:48:11;;;;;;;1.00;0.90;;;8.00;99.90;;;;;;5007027;28;20065;-66
2023/12/21 08:50:37;;;;;;;1.98;1.20;;;8.00;99.90;;;;;;5007472;28;20060;-67
2023/12/21 08:53:03;;;;;;;2.13;1.50;;;8.00;99.90;;;;;;5007194;28;20033;-66
2023/12/21 08:55:29;;;;;;;0.30;0.30;;;8.00;99.90;;;;;;5006619;28;20091;-66
2023/12/21 08:57:58;;;;;;;1.60;0.95;;;8.10;99.90;;;;;;5007071;28;20037;-66
2023/12/21 09:00:24;;;;;;;0.85;0.80;;;8.10;99.90;;;;;;5007096;28;20032;-66
2023/12/21 09:02:50;;;;;;;1.13;0.55;;;8.00;99.90;;;;;;5005646;28;20522;-66
2023/12/21 09:05:16;;;;;;;1.33;0.40;;;8.00;99.90;;;;;;5005289;28;20040;-67
2023/12/21 09:07:44;;;;;;;0.40;0.28;;;8.00;99.90;;;;;;5006506;28;20034;-66
2023/12/21 09:10:10;;;;;;;3.33;1.42;;;8.00;99.90;;;;;;5006571;28;20040;-66
2023/12/21 09:12:36;;;;;;;0.50;0.40;;;8.10;99.90;;;;;;5006478;28;20045;-66
2023/12/21 09:15:03;;;;;;;0.60;0.60;;;8.00;99.90;;;;;;5006518;28;20030;-66
2023/12/21 09:17:29;;;;;;;2.63;1.33;;;8.00;99.90;;;;;;5006421;28;20475;-66
2023/12/21 09:19:56;;;;;;;1.20;1.00;;;8.00;99.90;;;;;;5006941;28;20037;-66
2023/12/21 09:22:22;;;;;;;2.67;0.80;;;8.10;99.90;;;;;;5004988;28;20894;-66
2023/12/21 09:24:48;;;;;;;0.30;0.30;;;8.10;99.90;;;;;;5006779;28;20038;-66
2023/12/21 09:27:14;;;;;;;0.25;0.25;;;8.10;99.90;;;;;;5006605;28;20041;-66
2023/12/21 09:29:56;;;;;;;7.03;4.43;;;8.10;99.90;;;;;;5006083;28;20678;-66
2023/12/21 09:32:23;;;;;;;1.80;1.60;;;8.10;99.90;;;;;;5000187;28;20046;-66
2023/12/21 09:34:49;;;;;;;3.33;0.90;;;8.20;99.90;;;;;;5006260;28;20535;-66
2023/12/21 09:37:15;;;;;;;1.95;0.50;;;8.30;99.90;;;;;;5006059;28;20024;-66
2023/12/21 09:39:40;;;;;;;2.25;1.10;;;8.30;99.90;;;;;;5006004;28;20380;-66
2023/12/21 09:42:06;;;;;;;2.00;0.90;;;8.30;99.90;;;;;;5005772;28;20081;-66
2023/12/21 09:44:34;;;;;;;0.55;0.55;;;8.30;99.90;;;;;;5006548;28;20034;-66
2023/12/21 09:47:06;;;;;;;0.30;0.30;;;8.30;99.90;;;;;;5005810;28;20033;-66
2023/12/21 09:49:37;;;;;;;0.30;0.25;;;8.30;99.90;;;;;;5006340;28;20794;-67
2023/12/21 09:52:08;;;;;;;0.57;0.40;;;8.20;99.90;;;;;;5005985;28;20395;-66
2023/12/21 09:54:40;;;;;;;7.63;3.65;;;8.20;99.90;;;;;;5005694;28;20044;-66
2023/12/21 09:57:06;;;;;;;1.63;1.52;;;8.20;99.90;;;;;;5003274;28;20034;-67
2023/12/21 09:59:32;;;;;;;2.50;2.30;;;8.20;99.90;;;;;;5005079;28;20719;-65
2023/12/21 10:01:57;;;;;;;1.98;1.52;;;8.20;99.90;;;;;;5004354;28;20048;-66
2023/12/21 10:04:23;;;;;;;0.70;0.20;;;8.20;99.90;;;;;;5004563;28;20037;-66
2023/12/21 10:06:49;;;;;;;0.43;0.38;;;8.20;99.90;;;;;;5004971;28;20033;-66
2023/12/21 10:09:17;;;;;;;1.17;0.17;;;8.20;99.90;;;;;;5004796;28;20038;-65
2023/12/21 10:11:43;;;;;;;1.98;1.27;;;8.10;99.90;;;;;;5001343;28;20021;-65
2023/12/21 10:14:19;;;;;;;2.50;1.00;;;8.20;99.90;;;;;;5000019;28;20137;-66
2023/12/21 10:16:45;;;;;;;0.38;0.30;;;8.20;99.90;;;;;;4998544;28;20478;-65
2023/12/21 10:19:15;;;;;;;0.57;0.40;;;8.20;99.90;;;;;;5005920;28;20033;-66
2023/12/21 10:21:41;;;;;;;1.25;0.88;;;8.20;99.90;;;;;;5006343;28;20562;-66
2023/12/21 10:24:07;;;;;;;2.35;1.17;;;8.30;99.90;;;;;;5002018;28;20609;-66
2023/12/21 10:26:47;;;;;;;1.08;0.80;;;8.30;99.90;;;;;;4998837;28;20030;-66
2023/12/21 10:29:17;;;;;;;0.35;0.35;;;8.40;99.90;;;;;;5005368;28;20034;-66
2023/12/21 10:31:47;;;;;;;1.85;1.23;;;8.40;99.90;;;;;;5005965;28;20032;-65
2023/12/21 10:34:14;;;;;;;2.17;1.40;;;8.40;99.90;;;;;;5005412;28;20482;-66
2023/12/21 10:36:45;;;;;;;1.33;0.90;;;8.40;99.90;;;;;;5005421;28;20037;-67
2023/12/21 10:39:12;;;;;;;1.45;0.75;;;8.40;99.90;;;;;;5008997;28;20769;-66
2023/12/21 10:41:44;;;;;;;6.93;3.05;;;8.50;99.90;;;;;;4999413;28;20034;-66
2023/12/21 10:44:12;;;;;;;2.85;2.00;;;8.40;99.90;;;;;;5004909;28;20030;-66
2023/12/21 10:46:39;;;;;;;0.17;0.17;;;8.50;99.90;;;;;;5003520;28;20034;-64
2023/12/21 10:49:08;;;;;;;0.15;0.15;;;8.40;99.90;;;;;;5004369;28;20038;-67
2023/12/21 10:51:40;;;;;;;0.98;0.80;;;8.50;99.90;;;;;;5004179;28;20030;-66
2023/12/21 10:54:09;;;;;;;2.03;1.20;;;8.50;99.90;;;;;;5004089;28;20044;-66
2023/12/21 10:56:44;;;;;;;6.20;3.20;;;8.50;99.90;;;;;;5004345;28;20100;-67
2023/12/21 10:59:12;;;;;;;0.73;0.50;;;8.50;99.90;;;;;;5003900;28;20048;-67
2023/12/21 11:01:39;;;;;;;0.55;0.50;;;8.50;99.90;;;;;;5000594;28;20034;-67
2023/12/21 11:04:06;;;;;;;0.40;0.40;;;8.50;99.90;;;;;;5005008;28;20100;-67
2023/12/21 11:06:33;;;;;;;0.98;0.60;;;8.60;99.90;;;;;;5004457;28;20487;-67
2023/12/21 11:09:00;;;;;;;2.05;0.40;;;8.50;99.90;;;;;;5004541;28;20763;-67
2023/12/21 11:11:26;;;;;;;0.70;0.40;;;8.60;99.90;;;;;;5004547;28;20088;-68
2023/12/21 11:13:55;;;;;;;0.20;0.20;;;8.60;99.90;;;;;;5004541;28;20030;-67
2023/12/21 11:16:34;;;;;;;0.20;0.20;;;8.60;99.90;;;;;;5003127;28;20482;-67
2023/12/21 11:19:02;;;;;;;0.85;0.80;;;8.70;99.90;;;;;;4985094;28;20026;-67
2023/12/21 11:21:29;;;;;;;0.52;0.40;;;8.70;99.90;;;;;;4984983;28;20026;-67
2023/12/21 11:23:56;;;;;;;0.13;0.13;;;8.80;99.90;;;;;;4984913;28;20092;-67
2023/12/21 11:26:25;;;;;;;0.50;0.30;;;8.80;99.90;;;;;;4997758;28;20117;-66
2023/12/21 11:29:05;;;;;;;0.93;0.40;;;8.80;99.90;;;;;;5003986;28;20040;-68
2023/12/21 11:31:38;;;;;;;3.13;0.93;;;8.90;99.90;;;;;;5004921;28;20034;-67
2023/12/21 11:34:10;;;;;;;2.78;0.45;;;8.80;99.90;;;;;;5005033;28;20540;-67
2023/12/21 11:36:36;;;;;;;0.68;0.60;;;8.90;99.90;;;;;;5005258;28;20512;-67
2023/12/21 11:39:07;;;;;;;5.00;3.83;;;8.90;99.90;;;;;;5005166;28;20042;-67
2023/12/21 11:41:33;;;;;;;4.10;3.53;;;9.00;99.90;;;;;;5008538;28;20040;-67
2023/12/21 11:44:03;;;;;;;3.63;2.47;;;9.00;99.90;;;;;;5008598;28;20490;-67
2023/12/21 11:46:33;;;;;;;3.78;2.50;;;9.10;99.90;;;;;;5008499;28;20121;-67
2023/12/21 11:48:59;;;;;;;3.13;2.50;;;9.10;99.90;;;;;;5008603;28;20061;-67
2023/12/21 11:51:25;;;;;;;3.05;1.60;;;9.10;99.90;;;;;;5008224;28;20026;-68
2023/12/21 11:53:51;;;;;;;3.53;2.33;;;9.10;99.90;;;;;;5008308;28;20048;-67
2023/12/21 11:56:17;;;;;;;2.50;1.75;;;9.10;99.90;;;;;;5008367;28;20030;-67
2023/12/21 11:58:46;;;;;;;1.02;0.65;;;9.10;99.90;;;;;;5008397;28;20033;-67
2023/12/21 12:01:22;;;;;;;3.47;2.38;;;9.00;99.90;;;;;;5008624;28;20030;-67
2023/12/21 12:03:48;;;;;;;0.68;0.57;;;9.00;99.90;;;;;;5007954;28;20038;-68
2023/12/21 12:06:14;;;;;;;1.23;0.93;;;8.90;99.90;;;;;;5007870;28;20128;-67
2023/12/21 12:08:40;;;;;;;1.65;1.05;;;8.90;99.90;;;;;;5011803;28;20556;-67
2023/12/21 12:11:06;;;;;;;3.15;2.40;;;9.00;99.90;;;;;;5006196;28;20034;-67
2023/12/21 12:13:33;;;;;;;0.85;0.80;;;9.00;99.90;;;;;;5006417;28;20108;-67
2023/12/21 12:15:59;;;;;;;1.38;0.90;;;9.10;99.90;;;;;;5005971;28;20064;-67
2023/12/21 12:18:25;;;;;;;2.88;2.00;;;9.10;99.90;;;;;;4999562;28;20034;-67
2023/12/21 12:20:51;;;;;;;1.52;1.23;;;9.00;99.90;;;;;;5014129;28;20081;-67
2023/12/21 12:23:18;;;;;;;1.85;1.50;;;9.10;99.90;;;;;;5009153;28;20034;-67
2023/12/21 12:25:44;;;;;;;1.95;1.38;;;9.10;99.90;;;;;;5021448;28;20378;-68
2023/12/21 12:28:11;;;;;;;2.63;1.42;;;9.20;99.90;;;;;;5007832;28;20033;-67
2023/12/21 12:30:37;;;;;;;20.13;7.00;;;9.20;99.90;;;;;;5000003;28;20751;-67
2023/12/21 12:33:03;;;;;;;13.88;5.40;;;9.20;99.90;;;;;;5006332;28;20044;-67
2023/12/21 12:35:34;;;;;;;2.95;1.55;;;9.10;99.90;;;;;;5006920;28;20176;-67
2023/12/21 12:38:03;;;;;;;4.13;2.55;;;9.10;99.90;;;;;;4998842;28;20030;-67
2023/12/21 12:40:29;;;;;;;0.50;0.50;;;9.20;99.90;;;;;;4986938;28;20734;-67
2023/12/21 12:42:56;;;;;;;0.98;0.85;;;9.30;99.90;;;;;;4986935;28;20121;-67
2023/12/21 12:45:23;;;;;;;4.63;2.10;;;9.30;99.90;;;;;;4985967;28;20666;-67
2023/12/21 12:47:49;;;;;;;1.20;0.73;;;9.20;99.90;;;;;;5004921;28;20041;-67
2023/12/21 12:50:15;;;;;;;1.20;0.70;;;9.20;99.90;;;;;;5006596;28;20087;-67
2023/12/21 12:52:41;;;;;;;1.60;1.05;;;9.30;99.90;;;;;;5005754;28;20061;-67
2023/12/21 12:55:17;;;;;;;3.00;1.90;;;9.30;99.90;;;;;;5006846;28;20058;-67